Terminal Aerodrome Forecast
Issued by NWS Cleveland, OH

Home | Current Version | Previous Version | Text Only | Print | Product List | Glossary On
Versions: 1 2 3 4 5 6 7 8 9 10 11 12 13 14 15 16 17 18
013
FTUS41 KCLE 271425 AAA
TAFCAK
TAF AMD
KCAK 271425Z 2714/2812 19014KT P6SM SCT100 BKN250
     FM271600 19015G25KT P6SM SCT050 OVC100
      TEMPO 2719/2722 5SM -TSRA BKN030CB OVC060
     FM272200 23015G25KT P6SM BKN040
     FM280200 24010KT P6SM BKN035=

USA.gov is the U.S. government's official web portal to all federal, state and local government web resources and services.